createdAt,value
2022-07-31T03:33:23.435Z,12.75
2022-07-31T03:35:58.839Z,10.40
2022-07-31T03:38:42.331Z,14.00
2022-07-31T03:41:18.442Z,12.00
2022-07-31T03:43:52.960Z,15.00
2022-07-31T03:46:27.354Z,14.25
2022-07-31T03:49:02.009Z,13.00
2022-07-31T03:51:36.166Z,12.00
2022-07-31T05:58:14.803Z,7.00
2022-07-31T06:07:52.435Z,6.60
2022-07-31T06:10:47.602Z,6.00
2022-07-31T06:24:53.470Z,7.00
2022-07-31T06:32:49.963Z,16.75
2022-07-31T06:35:24.036Z,18.00
2022-07-31T06:37:58.772Z,13.40
2022-07-31T06:40:33.951Z,9.80
2022-07-31T06:43:09.054Z,8.00
2022-07-31T06:45:52.134Z,7.25
2022-07-31T06:48:27.665Z,6.20
2022-07-31T06:51:27.940Z,6.40
2022-07-31T06:53:57.079Z,5.80
2022-07-31T06:56:31.519Z,7.00
2022-07-31T06:59:06.736Z,7.00
2022-07-31T07:01:44.986Z,5.00
2022-07-31T07:05:04.444Z,5.00
2022-07-31T07:07:31.966Z,5.50
2022-07-31T07:10:07.337Z,6.00
2022-07-31T07:12:41.679Z,7.00
2022-07-31T07:15:18.941Z,6.00
2022-07-31T07:17:54.230Z,4.00
2022-07-31T07:20:29.929Z,6.60
2022-07-31T07:23:04.541Z,6.80
2022-07-31T07:25:44.662Z,6.00
2022-07-31T07:28:30.225Z,5.00
2022-07-31T07:31:06.201Z,6.00
2022-07-31T07:33:43.857Z,5.00
2022-07-31T07:36:24.738Z,6.00
2022-07-31T07:39:00.274Z,5.50
2022-07-31T07:41:35.554Z,6.00
2022-07-31T07:44:10.269Z,5.00
2022-07-31T07:46:45.282Z,5.25
2022-07-31T07:49:28.692Z,6.20
2022-07-31T07:52:04.417Z,5.00
2022-07-31T07:54:39.018Z,6.00
2022-07-31T07:57:13.854Z,4.75
2022-07-31T07:59:49.014Z,5.00
2022-07-31T08:02:24.072Z,5.00
2022-07-31T08:04:59.276Z,6.00
2022-07-31T08:07:41.591Z,6.25
2022-07-31T08:10:20.193Z,6.40
2022-07-31T08:12:55.653Z,5.00
2022-07-31T08:15:30.751Z,5.00
2022-07-31T08:18:05.958Z,5.00
2022-07-31T08:20:40.127Z,6.00
2022-07-31T08:23:18.277Z,5.60
2022-07-31T08:25:53.630Z,7.00
2022-07-31T08:28:31.339Z,6.60
2022-07-31T08:31:09.182Z,6.00
2022-07-31T08:33:44.478Z,6.00
2022-07-31T08:36:19.578Z,6.00
2022-07-31T08:38:55.752Z,5.60
2022-07-31T08:41:31.451Z,6.00
2022-07-31T08:44:27.140Z,5.00
2022-07-31T08:47:10.232Z,7.00
2022-07-31T08:49:54.053Z,6.40
2022-07-31T08:52:29.535Z,6.00
2022-07-31T08:55:04.980Z,7.00
2022-07-31T08:57:40.046Z,5.00
2022-07-31T09:00:18.249Z,6.00
2022-07-31T09:02:58.643Z,6.00
2022-07-31T09:05:41.831Z,7.00
2022-07-31T09:08:21.165Z,8.50
2022-07-31T09:10:55.687Z,10.00
2022-07-31T09:13:30.222Z,7.60
2022-07-31T09:16:04.538Z,8.00
2022-07-31T09:18:45.759Z,9.50
2022-07-31T09:21:23.272Z,7.00
2022-07-31T09:24:23.445Z,5.60
2022-07-31T09:26:58.099Z,8.00
2022-07-31T09:30:05.516Z,8.00
2022-07-31T09:32:43.567Z,7.40
2022-07-31T09:35:18.257Z,10.00
2022-07-31T09:37:52.784Z,10.00
2022-07-31T09:40:27.432Z,7.80
2022-07-31T09:43:04.098Z,11.00
2022-07-31T09:45:47.976Z,10.20
2022-07-31T09:48:26.811Z,11.00
2022-07-31T09:51:02.936Z,9.00
2022-07-31T09:53:42.999Z,8.00
2022-07-31T09:56:21.139Z,13.40
2022-07-31T09:58:55.416Z,10.00
2022-07-31T10:01:33.111Z,10.20
2022-07-31T10:04:15.411Z,10.60
2022-07-31T10:06:50.131Z,10.40
2022-07-31T10:10:04.571Z,16.00
2022-07-31T10:12:40.199Z,8.60
2022-07-31T10:15:17.923Z,8.60
2022-07-31T10:17:52.243Z,26.67
2022-07-31T10:20:27.333Z,17.20
2022-07-31T10:23:01.602Z,17.40
2022-07-31T10:25:36.809Z,13.25
2022-07-31T10:28:11.958Z,11.00
2022-07-31T10:30:47.486Z,9.40
2022-07-31T10:33:43.026Z,9.80
2022-07-31T10:36:16.919Z,10.00
2022-07-31T10:38:55.035Z,11.00
2022-07-31T10:41:33.457Z,10.00
2022-07-31T10:44:07.740Z,9.60
2022-07-31T10:46:41.869Z,8.60
2022-07-31T10:49:25.262Z,9.80
2022-07-31T10:52:02.229Z,9.00
2022-07-31T10:54:37.728Z,10.00
2022-07-31T10:57:13.474Z,8.20
2022-07-31T10:59:55.357Z,9.00
2022-07-31T11:02:29.994Z,12.00
2022-07-31T11:05:23.904Z,10.60
2022-07-31T11:07:58.325Z,10.00
2022-07-31T11:10:37.401Z,9.00
2022-07-31T11:13:14.623Z,10.00
2022-07-31T11:15:49.124Z,8.40
2022-07-31T11:18:28.650Z,9.00
2022-07-31T11:21:17.674Z,10.20
2022-07-31T11:24:03.118Z,8.00
2022-07-31T11:26:42.307Z,8.00
2022-07-31T11:30:01.550Z,7.50
2022-07-31T11:32:11.407Z,10.00
2022-07-31T11:34:45.971Z,8.00
2022-07-31T11:37:21.759Z,8.80
2022-07-31T11:39:57.170Z,9.00
2022-07-31T11:42:36.115Z,7.40
2022-07-31T11:45:12.780Z,8.00
2022-07-31T11:48:11.233Z,6.60
2022-07-31T11:50:41.743Z,8.00
2022-07-31T11:53:16.810Z,12.00
2022-07-31T11:55:52.664Z,11.00
2022-07-31T11:58:26.798Z,10.40
2022-07-31T12:01:01.021Z,13.00
2022-07-31T12:03:36.232Z,11.00
2022-07-31T12:06:12.610Z,9.25
2022-07-31T12:08:47.355Z,9.80
2022-07-31T12:11:22.362Z,8.20
2022-07-31T12:13:58.120Z,8.00
2022-07-31T12:16:33.299Z,6.00
2022-07-31T12:19:12.397Z,7.50
2022-07-31T12:21:47.137Z,7.40
2022-07-31T12:24:55.509Z,11.00
2022-07-31T12:27:30.078Z,10.00
2022-07-31T12:30:04.653Z,15.50
2022-07-31T12:32:39.580Z,12.75
2022-07-31T12:35:16.547Z,9.25
2022-07-31T12:37:54.888Z,7.50
2022-07-31T12:40:33.535Z,5.00
2022-07-31T12:43:08.869Z,7.00
2022-07-31T12:48:56.355Z,6.60
2022-07-31T12:51:45.135Z,8.50
2022-07-31T12:54:20.914Z,10.25
2022-07-31T12:56:56.042Z,9.60
2022-07-31T12:59:38.544Z,8.00
2022-07-31T13:02:13.373Z,5.80
2022-07-31T13:04:54.880Z,7.00
2022-07-31T13:07:29.281Z,6.00
2022-07-31T13:10:24.759Z,6.00
2022-07-31T13:12:59.875Z,6.00
2022-07-31T13:15:34.206Z,5.60
2022-07-31T13:18:08.857Z,6.60
2022-07-31T13:20:48.602Z,5.20
2022-07-31T13:23:22.750Z,6.00
2022-07-31T13:25:58.042Z,6.00
2022-07-31T13:28:32.159Z,5.75
2022-07-31T13:31:06.141Z,6.40
2022-07-31T13:33:58.759Z,4.40
2022-07-31T13:36:38.707Z,6.00
2022-07-31T13:39:51.103Z,5.00
2022-07-31T13:42:29.321Z,5.75
2022-07-31T13:45:10.103Z,5.60
2022-07-31T13:47:51.811Z,5.40
2022-07-31T13:50:29.632Z,5.20
2022-07-31T13:53:03.881Z,6.00
2022-07-31T13:55:37.894Z,6.00
2022-07-31T13:58:15.039Z,6.00
2022-07-31T14:00:49.261Z,6.75
2022-07-31T14:03:30.484Z,6.80
2022-07-31T14:06:09.696Z,5.50
2022-07-31T14:08:52.349Z,7.00
2022-07-31T14:11:26.767Z,6.60
2022-07-31T14:14:01.542Z,6.00
2022-07-31T14:16:36.319Z,6.60
2022-07-31T14:19:46.761Z,6.00
2022-07-31T14:22:21.315Z,7.00
2022-07-31T14:24:55.621Z,5.00
2022-07-31T14:27:30.267Z,5.00
2022-07-31T14:30:04.854Z,5.60
2022-07-31T14:32:40.056Z,6.00
2022-07-31T14:35:14.230Z,5.75
2022-07-31T14:37:48.859Z,7.00
2022-07-31T14:40:23.844Z,7.60
2022-07-31T14:43:24.614Z,7.00
2022-07-31T14:45:58.837Z,7.00
2022-07-31T14:48:40.670Z,6.00
2022-07-31T14:51:15.557Z,6.20
2022-07-31T14:53:53.454Z,7.20
2022-07-31T14:56:58.424Z,8.00
2022-07-31T14:59:25.401Z,9.00
2022-07-31T15:01:59.524Z,5.80
2022-07-31T15:04:36.854Z,6.00
2022-07-31T15:07:34.278Z,5.40
2022-07-31T15:10:05.457Z,7.60
2022-07-31T15:12:40.570Z,7.00
2022-07-31T15:15:15.215Z,8.00
2022-07-31T15:17:49.319Z,8.00
2022-07-31T15:20:28.895Z,8.40
2022-07-31T15:23:34.462Z,8.50
2022-07-31T15:26:10.605Z,9.00
2022-07-31T15:28:46.985Z,8.00
2022-07-31T15:31:21.610Z,6.67
2022-07-31T15:33:56.745Z,8.00
2022-07-31T15:36:30.742Z,9.50
2022-07-31T15:39:05.260Z,12.25
2022-07-31T15:41:39.492Z,9.60
2022-07-31T15:44:14.858Z,10.80
2022-07-31T15:46:48.999Z,11.50
2022-07-31T15:49:23.575Z,11.00
2022-07-31T15:51:58.668Z,13.00
2022-07-31T15:54:32.833Z,10.00
2022-07-31T15:57:07.592Z,10.00
2022-07-31T15:59:42.221Z,11.20
2022-07-31T16:02:16.882Z,10.00
2022-07-31T16:04:54.183Z,9.80
2022-07-31T16:08:30.766Z,10.40
2022-07-31T16:10:24.309Z,10.00
2022-07-31T16:12:58.870Z,10.00
2022-07-31T16:15:35.433Z,11.00
2022-07-31T16:18:10.936Z,10.00
2022-07-31T16:20:53.842Z,9.40
2022-07-31T16:23:28.936Z,10.60
2022-07-31T16:26:04.109Z,10.00
2022-07-31T16:28:38.427Z,10.50
2022-07-31T16:31:12.907Z,10.00
2022-07-31T16:34:05.020Z,8.80
2022-07-31T16:36:58.020Z,9.80
2022-07-31T16:39:32.811Z,8.00
2022-07-31T16:42:07.915Z,9.00
2022-07-31T16:44:42.477Z,10.00
2022-07-31T16:47:17.618Z,12.00
2022-07-31T16:50:11.819Z,11.00
2022-07-31T16:52:48.288Z,9.00
2022-07-31T16:55:51.570Z,10.60
2022-07-31T16:58:18.575Z,10.00
2022-07-31T17:01:00.189Z,9.50
2022-07-31T17:04:01.809Z,8.00
2022-07-31T17:06:36.327Z,10.33
2022-07-31T17:09:17.543Z,10.00
2022-07-31T17:11:52.514Z,8.00
2022-07-31T17:14:27.743Z,9.00
2022-07-31T17:17:02.047Z,9.00
2022-07-31T17:19:45.305Z,10.00
2022-07-31T17:22:23.157Z,8.00
2022-07-31T17:24:58.918Z,10.00
2022-07-31T17:27:33.499Z,8.00
2022-07-31T17:30:08.139Z,8.00
2022-07-31T17:32:42.700Z,8.50
2022-07-31T17:35:17.250Z,9.00
2022-07-31T17:37:52.461Z,8.00
2022-07-31T17:40:42.600Z,8.00
2022-07-31T17:43:19.511Z,9.00
2022-07-31T17:46:09.538Z,8.80
2022-07-31T17:48:52.043Z,8.00
2022-07-31T17:51:26.643Z,6.00
2022-07-31T17:54:01.794Z,7.40
2022-07-31T17:56:36.914Z,6.00
2022-07-31T17:59:30.695Z,5.20
2022-07-31T18:02:06.254Z,7.00
2022-07-31T18:04:40.679Z,9.00
2022-07-31T18:07:18.689Z,7.00
2022-07-31T18:09:53.710Z,6.00
2022-07-31T18:12:28.332Z,6.00
2022-07-31T18:15:22.499Z,6.00
2022-07-31T18:18:09.016Z,6.80
2022-07-31T18:20:46.045Z,7.00
2022-07-31T18:23:23.852Z,5.00
2022-07-31T18:25:59.875Z,6.00
2022-07-31T18:28:34.520Z,6.20
2022-07-31T18:31:31.427Z,6.00
2022-07-31T18:34:02.985Z,4.60
2022-07-31T18:36:37.683Z,5.00
2022-07-31T18:39:49.154Z,6.80
2022-07-31T18:42:29.864Z,5.00
2022-07-31T18:45:04.352Z,6.00
2022-07-31T18:47:39.389Z,7.00
2022-07-31T18:50:59.710Z,6.00
2022-07-31T18:53:10.088Z,6.00
2022-07-31T18:55:44.273Z,5.00
2022-07-31T18:58:19.401Z,4.80
2022-07-31T19:00:55.412Z,6.00
2022-07-31T19:03:31.828Z,8.00
2022-07-31T19:06:06.876Z,6.00
2022-07-31T19:08:57.567Z,6.00
2022-07-31T19:11:35.507Z,4.50
2022-07-31T19:14:11.761Z,6.00
2022-07-31T19:16:46.353Z,5.00
2022-07-31T19:20:01.319Z,6.00
2022-07-31T19:22:36.034Z,5.00
2022-07-31T19:25:11.090Z,6.00
2022-07-31T19:27:47.981Z,6.00
2022-07-31T19:30:23.310Z,6.00
2022-07-31T19:32:57.331Z,5.60
2022-07-31T19:35:31.309Z,5.00
2022-07-31T19:38:05.435Z,6.40
2022-07-31T19:40:39.508Z,6.00
2022-07-31T19:43:25.346Z,6.00
2022-07-31T19:46:12.006Z,6.00
2022-07-31T19:48:51.556Z,6.00
2022-07-31T19:51:26.213Z,6.40
2022-07-31T19:54:00.405Z,5.00
2022-07-31T19:56:35.056Z,5.25
2022-07-31T19:59:10.194Z,6.00
2022-07-31T20:02:04.079Z,6.60
2022-07-31T20:04:38.889Z,8.00
2022-07-31T20:07:13.073Z,6.00
2022-07-31T20:09:48.879Z,7.00
2022-07-31T20:12:23.963Z,6.00
2022-07-31T20:15:17.713Z,6.00
2022-07-31T20:17:53.943Z,7.00
2022-07-31T20:20:28.463Z,5.00
2022-07-31T20:23:12.762Z,6.00
2022-07-31T20:25:47.925Z,5.33
2022-07-31T20:28:22.502Z,8.00
2022-07-31T20:30:57.405Z,6.00
2022-07-31T20:33:31.870Z,6.80
2022-07-31T20:36:06.424Z,7.40
2022-07-31T20:38:41.531Z,6.00
2022-07-31T20:41:16.630Z,7.00
2022-07-31T20:43:51.139Z,5.00
2022-07-31T20:46:25.389Z,7.00
2022-07-31T20:49:01.489Z,6.60
2022-07-31T20:51:35.855Z,7.00
2022-07-31T20:54:11.075Z,6.00
2022-07-31T20:56:45.603Z,7.50
2022-07-31T20:59:20.210Z,6.00
2022-07-31T21:01:54.946Z,6.25
2022-07-31T21:04:55.471Z,6.00
2022-07-31T21:07:31.071Z,7.00
2022-07-31T21:10:06.224Z,6.75
2022-07-31T21:12:41.359Z,6.25
2022-07-31T21:15:41.258Z,7.00
2022-07-31T21:18:10.904Z,5.00
2022-07-31T21:20:52.443Z,5.50
2022-07-31T21:23:30.549Z,6.00
2022-07-31T21:26:05.201Z,5.60
2022-07-31T21:28:40.294Z,6.00
2022-07-31T21:31:14.326Z,7.50
2022-07-31T21:33:49.946Z,6.00
2022-07-31T21:36:25.154Z,6.00
2022-07-31T21:38:59.785Z,6.00
2022-07-31T21:41:55.928Z,6.60
